createdAt,value
2018-08-01T00:01:21.311Z,3.13
2018-08-01T00:06:24.284Z,2.80
2018-08-01T00:11:27.594Z,2.67
2018-08-01T00:16:30.731Z,3.27
2018-08-01T00:21:33.728Z,3.00
2018-08-01T00:26:36.769Z,3.13
2018-08-01T00:31:39.690Z,3.00
2018-08-01T00:36:42.672Z,3.10
2018-08-01T00:41:45.779Z,3.23
2018-08-01T00:46:48.767Z,2.30
2018-08-01T00:51:51.766Z,3.10
2018-08-01T00:56:54.728Z,2.60
2018-08-01T01:01:57.728Z,3.40
2018-08-01T01:07:00.827Z,3.00
2018-08-01T01:12:03.944Z,2.23
2018-08-01T01:17:06.980Z,2.87
2018-08-01T01:22:09.962Z,2.87
2018-08-01T01:27:12.959Z,2.60
2018-08-01T01:32:15.976Z,2.17
2018-08-01T01:37:19.021Z,2.63
2018-08-01T01:42:22.067Z,2.80
2018-08-01T01:47:25.054Z,2.80
2018-08-01T01:52:42.806Z,2.63
2018-08-01T01:57:46.391Z,2.80
2018-08-01T02:02:49.423Z,2.60
2018-08-01T02:07:52.408Z,3.07
2018-08-01T02:12:59.917Z,3.00
2018-08-01T02:18:03.583Z,2.80
2018-08-01T02:23:06.604Z,2.63
2018-08-01T02:28:09.590Z,2.60
2018-08-01T02:33:12.609Z,2.80
2018-08-01T02:38:15.584Z,3.30
2018-08-01T02:43:18.612Z,3.17
2018-08-01T02:48:21.599Z,3.63
2018-08-01T02:53:24.600Z,3.27
2018-08-01T02:58:27.552Z,3.47
2018-08-01T03:03:30.535Z,3.70
2018-08-01T03:08:33.526Z,3.53
2018-08-01T03:13:36.480Z,3.90
2018-08-01T03:18:39.459Z,4.00
2018-08-01T03:23:42.476Z,3.67
2018-08-01T03:28:45.505Z,3.70
2018-08-01T03:33:48.469Z,3.60
2018-08-01T03:38:51.504Z,3.77
2018-08-01T03:43:54.478Z,4.07
2018-08-01T03:48:57.512Z,4.57
2018-08-01T03:54:00.496Z,4.20
2018-08-01T03:59:03.496Z,4.77
2018-08-01T04:04:06.536Z,4.77
2018-08-01T04:09:09.541Z,4.97
2018-08-01T04:14:12.588Z,4.93
2018-08-01T04:19:15.530Z,4.50
2018-08-01T04:24:18.528Z,4.40
2018-08-01T04:29:21.529Z,5.00
2018-08-01T04:34:24.463Z,4.30
2018-08-01T04:39:27.479Z,4.27
2018-08-01T04:44:30.578Z,4.50
2018-08-01T04:49:33.592Z,4.60
2018-08-01T04:54:36.683Z,4.90
2018-08-01T04:59:39.791Z,4.00
2018-08-01T05:04:42.768Z,4.80
2018-08-01T05:09:45.756Z,5.00
2018-08-01T05:14:48.735Z,4.80
2018-08-01T05:19:51.783Z,5.67
2018-08-01T05:24:54.770Z,6.00
2018-08-01T05:29:57.918Z,6.53
2018-08-01T05:35:00.883Z,6.70
2018-08-01T05:40:04.468Z,7.10
2018-08-01T05:45:08.507Z,6.70
2018-08-01T05:50:11.491Z,7.77
2018-08-01T05:55:14.516Z,7.47
2018-08-01T06:00:17.652Z,6.80
2018-08-01T06:05:20.651Z,6.77
2018-08-01T06:10:23.745Z,6.37
2018-08-01T06:15:26.763Z,6.50
2018-08-01T06:20:29.749Z,6.50
2018-08-01T06:25:32.739Z,7.47
2018-08-01T06:30:35.701Z,7.13
2018-08-01T06:35:38.727Z,8.40
2018-08-01T06:40:41.784Z,6.47
2018-08-01T06:45:44.785Z,7.23
2018-08-01T06:50:47.800Z,7.20
2018-08-01T06:55:50.859Z,6.40
2018-08-01T07:00:53.856Z,6.57
2018-08-01T07:05:56.847Z,7.40
2018-08-01T07:10:59.892Z,6.03
2018-08-01T07:16:02.985Z,6.40
2018-08-01T07:21:06.088Z,6.70
2018-08-01T07:26:09.217Z,5.97
2018-08-01T07:31:12.286Z,6.50
2018-08-01T07:36:15.279Z,6.40
2018-08-01T07:41:18.371Z,6.27
2018-08-01T07:46:21.316Z,6.03
2018-08-01T07:51:24.317Z,5.93
2018-08-01T07:56:27.527Z,6.17
2018-08-01T08:01:30.527Z,6.53
2018-08-01T08:06:33.729Z,6.83
2018-08-01T08:11:36.791Z,7.00
2018-08-01T08:16:40.049Z,7.03
2018-08-01T08:21:43.123Z,6.57
2018-08-01T08:26:46.101Z,5.77
2018-08-01T08:31:49.124Z,6.27
2018-08-01T08:36:52.189Z,6.83
2018-08-01T08:41:55.141Z,6.60
2018-08-01T08:46:58.297Z,6.80
2018-08-01T08:52:01.300Z,5.87
2018-08-01T08:57:04.420Z,7.40
2018-08-01T09:02:07.472Z,6.13
2018-08-01T09:07:10.552Z,5.73
2018-08-01T09:12:14.383Z,6.60
2018-08-01T09:17:17.514Z,5.30
2018-08-01T09:22:20.552Z,4.83
2018-08-01T09:27:23.571Z,5.97
2018-08-01T09:32:26.577Z,7.03
2018-08-01T09:37:29.699Z,5.03
2018-08-01T09:42:36.399Z,5.33
2018-08-01T09:47:39.514Z,5.60
2018-08-01T09:52:42.606Z,5.33
2018-08-01T09:57:45.632Z,5.80
2018-08-01T10:03:31.078Z,5.40
2018-08-01T10:08:34.092Z,5.47
2018-08-01T10:13:37.131Z,6.00
2018-08-01T10:18:40.351Z,6.20
2018-08-01T10:23:43.343Z,6.20
2018-08-01T10:28:46.334Z,5.60
2018-08-01T10:33:49.341Z,5.90
2018-08-01T10:38:52.472Z,7.10
2018-08-01T10:43:55.445Z,7.13
2018-08-01T10:48:58.564Z,6.40
2018-08-01T10:54:01.596Z,6.97
2018-08-01T10:59:04.686Z,6.73
2018-08-01T11:04:08.680Z,6.60
2018-08-01T11:09:12.918Z,6.37
2018-08-01T11:14:15.907Z,6.27
2018-08-01T11:19:19.030Z,6.13
2018-08-01T11:24:22.073Z,6.17
2018-08-01T11:29:25.049Z,6.40
2018-08-01T11:34:32.944Z,6.00
2018-08-01T11:39:35.978Z,6.23
2018-08-01T11:44:39.887Z,6.40
2018-08-01T11:49:42.999Z,4.87
2018-08-01T11:54:46.037Z,5.27
2018-08-01T11:59:49.120Z,5.47
2018-08-01T12:04:52.075Z,5.03
2018-08-01T12:09:55.085Z,5.80
2018-08-01T12:14:58.514Z,5.73
2018-08-01T12:20:01.516Z,5.77
2018-08-01T12:25:04.653Z,6.43
2018-08-01T12:30:07.775Z,5.70
2018-08-01T12:35:11.040Z,5.30
2018-08-01T12:40:14.264Z,5.40
2018-08-01T12:45:17.297Z,4.80
2018-08-01T12:50:20.435Z,5.27
2018-08-01T12:55:23.551Z,5.27
2018-08-01T13:00:26.800Z,4.80
2018-08-01T13:05:29.868Z,4.40
2018-08-01T13:10:32.968Z,4.57
2018-08-01T13:15:35.996Z,4.17
2018-08-01T13:20:39.059Z,4.63
2018-08-01T13:25:42.114Z,3.97
2018-08-01T13:30:45.112Z,4.40
2018-08-01T13:35:48.146Z,4.07
2018-08-01T13:40:51.203Z,4.50
2018-08-01T13:45:54.220Z,4.10
2018-08-01T13:50:57.325Z,4.60
2018-08-01T13:56:00.356Z,6.13
2018-08-01T14:01:03.494Z,6.37
2018-08-01T14:06:06.520Z,5.70
2018-08-01T14:11:09.580Z,4.90
2018-08-01T14:16:12.603Z,3.93
2018-08-01T14:21:15.712Z,3.43
2018-08-01T14:26:18.775Z,3.70
2018-08-01T14:31:21.940Z,3.80
2018-08-01T14:36:24.976Z,3.50
2018-08-01T14:41:28.048Z,3.87
2018-08-01T14:46:31.077Z,3.67
2018-08-01T14:51:34.233Z,3.13
2018-08-01T14:56:37.443Z,3.43
2018-08-01T15:01:40.435Z,3.40
2018-08-01T15:06:43.516Z,4.07
2018-08-01T15:11:46.556Z,4.40
2018-08-01T15:16:49.652Z,3.43
2018-08-01T15:21:52.844Z,4.53
2018-08-01T15:26:56.124Z,4.57
2018-08-01T15:31:59.503Z,4.87
2018-08-01T15:37:02.887Z,5.10
2018-08-01T15:42:06.714Z,4.10
2018-08-01T15:47:09.845Z,11.37
2018-08-01T15:52:12.935Z,4.80
2018-08-01T15:57:16.209Z,5.53
2018-08-01T16:02:19.036Z,5.50
2018-08-01T16:07:22.247Z,5.73
2018-08-01T16:12:25.394Z,5.53
2018-08-01T16:17:28.534Z,6.47
2018-08-01T16:22:31.786Z,8.27
2018-08-01T16:27:35.017Z,6.13
2018-08-01T16:32:38.322Z,6.33
2018-08-01T16:37:41.532Z,9.03
2018-08-01T16:42:44.724Z,10.13
2018-08-01T16:47:47.947Z,8.27
2018-08-01T16:52:51.078Z,4.10
2018-08-01T16:57:54.197Z,5.67
2018-08-01T17:08:42.972Z,13.80
2018-08-01T17:13:46.276Z,6.00
2018-08-01T17:18:49.269Z,7.13
2018-08-01T17:23:52.569Z,7.00
2018-08-01T17:28:55.603Z,6.27
2018-08-01T17:51:13.594Z,7.67
2018-08-01T17:56:16.759Z,6.10
2018-08-01T18:01:19.906Z,5.30
2018-08-01T18:06:23.089Z,5.30
2018-08-01T18:11:26.333Z,5.50
2018-08-01T18:16:29.464Z,5.00
2018-08-01T18:21:32.604Z,6.50
2018-08-01T18:26:35.860Z,6.20
2018-08-01T18:31:38.905Z,7.53
2018-08-01T18:36:42.273Z,6.47
2018-08-01T18:41:45.359Z,6.70
2018-08-01T18:46:48.594Z,6.40
2018-08-01T18:51:51.632Z,9.00
2018-08-01T18:56:54.917Z,7.83
2018-08-01T19:01:58.120Z,7.10
2018-08-01T19:07:01.236Z,8.07
2018-08-01T19:12:04.447Z,6.53
2018-08-01T19:17:07.490Z,6.83
2018-08-01T19:22:10.741Z,7.13
2018-08-01T19:27:13.880Z,7.77
2018-08-01T19:32:17.056Z,7.40
2018-08-01T19:37:20.408Z,7.20
2018-08-01T19:42:23.634Z,7.00
2018-08-01T19:47:26.868Z,7.30
2018-08-01T19:52:30.808Z,6.97
2018-08-01T19:57:34.191Z,6.33
2018-08-01T20:02:36.518Z,7.70
2018-08-01T20:07:39.864Z,6.23
2018-08-01T20:12:42.941Z,6.80
2018-08-01T20:17:46.121Z,6.80
2018-08-01T20:22:49.595Z,7.67
2018-08-01T20:27:52.686Z,7.70
2018-08-01T20:32:55.713Z,8.13
2018-08-01T20:37:58.903Z,6.73
2018-08-01T20:43:01.997Z,6.63
2018-08-01T20:48:05.210Z,8.13
2018-08-01T20:53:08.673Z,6.90
2018-08-01T20:58:11.719Z,7.57
2018-08-01T21:03:14.825Z,8.07
2018-08-01T21:08:17.965Z,6.80
2018-08-01T21:13:21.052Z,8.00
2018-08-01T21:18:24.089Z,6.17
2018-08-01T21:23:27.297Z,7.20
2018-08-01T21:28:30.726Z,6.93
2018-08-01T21:33:34.065Z,8.27
2018-08-01T21:38:37.375Z,7.30
2018-08-01T21:43:40.655Z,7.73
2018-08-01T21:48:44.103Z,7.70
2018-08-01T21:53:47.143Z,7.00
2018-08-01T21:58:50.205Z,8.00
2018-08-01T22:03:53.203Z,7.40
2018-08-01T22:08:56.341Z,8.03
2018-08-01T22:13:59.520Z,8.30
2018-08-01T22:19:03.039Z,8.37
2018-08-01T22:24:06.161Z,7.53
2018-08-01T22:29:09.176Z,7.40
2018-08-01T22:34:12.233Z,8.87
2018-08-01T22:39:15.282Z,8.47
2018-08-01T22:44:18.464Z,8.83
2018-08-01T22:49:21.427Z,8.50
2018-08-01T22:54:24.468Z,8.27
2018-08-01T22:59:27.573Z,7.87
2018-08-01T23:04:30.611Z,6.80
2018-08-01T23:09:33.639Z,6.40
2018-08-01T23:14:36.896Z,7.20
2018-08-01T23:19:40.121Z,6.43
2018-08-01T23:24:43.328Z,6.03
2018-08-01T23:29:46.324Z,6.30
2018-08-01T23:34:49.467Z,7.13
2018-08-01T23:39:52.580Z,7.03
2018-08-01T23:44:55.711Z,8.47
2018-08-01T23:49:58.853Z,7.30
2018-08-01T23:55:02.055Z,8.13
